createdAt,value
2018-09-23T00:01:10.896Z,15.25
2018-09-23T00:03:38.061Z,15.15
2018-09-23T00:06:05.255Z,15.22
2018-09-23T00:08:32.410Z,15.15
2018-09-23T00:10:59.734Z,15.11
2018-09-23T00:13:27.033Z,15.16
2018-09-23T00:15:54.296Z,15.16
2018-09-23T00:18:21.439Z,15.16
2018-09-23T00:20:48.715Z,15.16
2018-09-23T00:23:15.946Z,15.13
2018-09-23T00:25:43.031Z,15.11
2018-09-23T00:28:10.248Z,15.12
2018-09-23T00:30:37.444Z,14.99
2018-09-23T00:33:04.590Z,15.04
2018-09-23T00:35:31.719Z,15.05
2018-09-23T00:37:58.847Z,15.07
2018-09-23T00:40:26.247Z,15.10
2018-09-23T00:42:53.358Z,15.06
2018-09-23T00:45:20.465Z,15.08
2018-09-23T00:47:47.633Z,15.06
2018-09-23T00:50:15.392Z,14.99
2018-09-23T00:52:42.553Z,14.97
2018-09-23T00:55:09.699Z,15.02
2018-09-23T00:57:36.821Z,15.06
2018-09-23T01:00:04.880Z,15.06
2018-09-23T01:02:32.006Z,14.61
2018-09-23T01:04:59.136Z,15.05
2018-09-23T01:07:26.304Z,15.07
2018-09-23T01:09:53.435Z,15.07
2018-09-23T01:12:20.687Z,15.07
2018-09-23T01:14:47.864Z,15.09
2018-09-23T01:17:15.071Z,15.08
2018-09-23T01:19:42.206Z,15.04
2018-09-23T01:22:09.332Z,14.99
2018-09-23T01:24:36.527Z,14.97
2018-09-23T01:27:03.650Z,14.91
2018-09-23T01:29:30.795Z,14.95
2018-09-23T01:31:58.021Z,15.01
2018-09-23T01:34:25.151Z,14.99
2018-09-23T01:36:52.343Z,15.09
2018-09-23T01:39:19.453Z,15.12
2018-09-23T01:41:46.647Z,15.07
2018-09-23T01:44:13.751Z,14.98
2018-09-23T01:46:40.906Z,14.92
2018-09-23T01:49:08.121Z,14.91
2018-09-23T01:51:35.268Z,14.84
2018-09-23T01:54:02.394Z,14.81
2018-09-23T01:56:29.507Z,14.88
2018-09-23T01:58:56.606Z,14.86
2018-09-23T02:01:23.745Z,14.92
2018-09-23T02:03:50.950Z,14.96
2018-09-23T02:06:18.133Z,12.21
2018-09-23T02:08:45.238Z,14.83
2018-09-23T02:11:12.366Z,14.91
2018-09-23T02:13:39.542Z,14.93
2018-09-23T02:16:06.847Z,14.97
2018-09-23T02:18:34.026Z,15.00
2018-09-23T02:21:01.224Z,14.96
2018-09-23T02:23:28.358Z,14.96
2018-09-23T02:25:55.510Z,14.98
2018-09-23T02:28:22.702Z,14.96
2018-09-23T02:30:49.802Z,14.97
2018-09-23T02:33:17.034Z,15.03
2018-09-23T02:35:44.351Z,15.05
2018-09-23T02:38:11.507Z,15.03
2018-09-23T02:40:38.631Z,15.00
2018-09-23T02:43:05.827Z,15.00
2018-09-23T02:45:32.935Z,15.08
2018-09-23T02:48:00.170Z,15.13
2018-09-23T02:50:27.338Z,15.13
2018-09-23T02:52:54.575Z,15.11
2018-09-23T02:55:21.690Z,15.09
2018-09-23T02:57:48.840Z,15.18
2018-09-23T03:00:16.011Z,15.26
2018-09-23T03:02:43.190Z,14.84
2018-09-23T03:05:11.035Z,15.18
2018-09-23T03:07:38.610Z,15.18
2018-09-23T03:10:06.178Z,15.20
2018-09-23T03:12:33.232Z,15.20
2018-09-23T03:15:00.474Z,15.12
2018-09-23T03:17:27.559Z,15.17
2018-09-23T03:19:54.712Z,15.21
2018-09-23T03:22:21.865Z,15.25
2018-09-23T03:24:49.065Z,15.32
2018-09-23T03:27:16.181Z,15.35
2018-09-23T03:29:43.371Z,15.40
2018-09-23T03:32:10.505Z,15.35
2018-09-23T03:34:37.654Z,15.42
2018-09-23T03:37:04.761Z,15.42
2018-09-23T03:39:31.907Z,15.42
2018-09-23T03:41:59.026Z,15.42
2018-09-23T03:44:26.205Z,15.37
2018-09-23T03:46:53.320Z,15.43
2018-09-23T03:49:20.500Z,15.56
2018-09-23T03:51:47.657Z,15.66
2018-09-23T03:54:15.367Z,15.70
2018-09-23T03:56:43.338Z,15.66
2018-09-23T03:59:10.510Z,15.57
2018-09-23T04:01:37.898Z,15.53
2018-09-23T04:04:05.246Z,15.56
2018-09-23T04:06:32.502Z,15.64
2018-09-23T04:08:59.666Z,15.60
2018-09-23T04:11:26.811Z,15.65
2018-09-23T04:13:54.229Z,15.65
2018-09-23T04:16:21.481Z,15.70
2018-09-23T04:18:48.637Z,15.71
2018-09-23T04:21:15.803Z,15.76
2018-09-23T04:23:44.293Z,15.74
2018-09-23T04:26:11.466Z,15.73
2018-09-23T04:28:38.592Z,15.70
2018-09-23T04:31:05.810Z,15.70
2018-09-23T04:33:32.953Z,15.67
2018-09-23T04:36:00.144Z,15.68
2018-09-23T04:38:27.274Z,15.65
2018-09-23T04:40:54.528Z,15.73
2018-09-23T04:43:21.630Z,15.72
2018-09-23T04:45:48.739Z,15.71
2018-09-23T04:48:15.881Z,15.72
2018-09-23T04:50:42.955Z,15.72
2018-09-23T04:53:10.332Z,15.68
2018-09-23T04:55:37.460Z,15.70
2018-09-23T04:58:04.583Z,15.71
2018-09-23T05:00:31.712Z,15.67
2018-09-23T05:02:58.839Z,15.70
2018-09-23T05:05:26.017Z,15.76
2018-09-23T05:07:53.214Z,15.82
2018-09-23T05:10:20.671Z,15.85
2018-09-23T05:12:47.813Z,15.90
2018-09-23T05:15:14.949Z,15.94
2018-09-23T05:17:42.263Z,11.50
2018-09-23T05:20:09.417Z,15.97
2018-09-23T05:22:36.538Z,16.01
2018-09-23T05:25:03.718Z,16.05
2018-09-23T05:27:30.820Z,16.03
2018-09-23T05:29:58.174Z,16.07
2018-09-23T05:32:25.280Z,16.12
2018-09-23T05:34:52.447Z,16.17
2018-09-23T05:37:19.582Z,16.22
2018-09-23T05:39:46.703Z,16.24
2018-09-23T05:42:13.903Z,16.29
2018-09-23T05:44:41.047Z,16.31
2018-09-23T05:47:08.175Z,16.35
2018-09-23T05:49:35.463Z,16.33
2018-09-23T05:52:02.551Z,16.30
2018-09-23T05:54:29.694Z,16.14
2018-09-23T05:56:56.833Z,16.39
2018-09-23T05:59:23.931Z,16.34
2018-09-23T06:01:51.036Z,16.38
2018-09-23T06:04:18.181Z,16.47
2018-09-23T06:06:45.557Z,16.48
2018-09-23T06:09:12.686Z,16.48
2018-09-23T06:11:39.789Z,16.53
2018-09-23T06:14:06.882Z,16.57
2018-09-23T06:16:34.109Z,16.60
2018-09-23T06:19:01.342Z,16.63
2018-09-23T06:21:28.461Z,16.67
2018-09-23T06:23:55.713Z,16.79
2018-09-23T06:26:22.835Z,16.84
2018-09-23T06:28:49.940Z,16.83
2018-09-23T06:31:17.225Z,16.86
2018-09-23T06:33:44.370Z,16.90
2018-09-23T06:36:11.495Z,16.94
2018-09-23T06:38:38.584Z,16.96
2018-09-23T06:41:06.008Z,17.02
2018-09-23T06:43:33.107Z,17.09
2018-09-23T06:46:00.235Z,17.09
2018-09-23T06:48:27.437Z,17.14
2018-09-23T06:50:54.599Z,17.13
2018-09-23T06:53:21.808Z,17.18
2018-09-23T06:55:49.004Z,17.26
2018-09-23T06:58:16.123Z,17.33
2018-09-23T07:00:43.286Z,17.38
2018-09-23T07:03:10.462Z,17.41
2018-09-23T07:05:37.597Z,17.42
2018-09-23T07:08:04.724Z,17.45
2018-09-23T07:10:31.971Z,17.51
2018-09-23T07:12:59.031Z,17.48
2018-09-23T07:15:26.204Z,17.55
2018-09-23T07:17:53.405Z,17.69
2018-09-23T07:20:20.721Z,17.74
2018-09-23T07:22:47.873Z,17.79
2018-09-23T07:25:15.139Z,17.84
2018-09-23T07:27:42.332Z,17.91
2018-09-23T07:30:09.401Z,17.91
2018-09-23T07:32:36.661Z,17.91
2018-09-23T07:35:03.801Z,17.95
2018-09-23T07:37:31.005Z,18.00
2018-09-23T07:39:58.196Z,18.11
2018-09-23T07:42:25.622Z,18.12
2018-09-23T07:44:52.753Z,18.15
2018-09-23T07:47:19.866Z,18.15
2018-09-23T07:49:46.968Z,18.21
2018-09-23T07:52:14.166Z,18.32
2018-09-23T07:54:41.376Z,18.13
2018-09-23T07:57:08.488Z,18.34
2018-09-23T07:59:35.671Z,18.38
2018-09-23T08:02:02.838Z,18.37
2018-09-23T08:04:30.046Z,18.33
2018-09-23T08:06:57.205Z,18.32
2018-09-23T08:09:24.405Z,18.37
2018-09-23T08:11:51.531Z,18.39
2018-09-23T08:14:21.340Z,18.51
2018-09-23T08:16:48.181Z,18.53
2018-09-23T08:19:15.362Z,18.54
2018-09-23T08:21:42.562Z,18.58
2018-09-23T08:24:09.691Z,18.57
2018-09-23T08:26:37.160Z,18.61
2018-09-23T08:29:04.282Z,18.59
2018-09-23T08:31:31.653Z,18.55
2018-09-23T08:33:58.861Z,18.56
2018-09-23T08:36:25.999Z,18.60
2018-09-23T08:38:53.078Z,18.65
2018-09-23T08:41:20.235Z,18.71
2018-09-23T08:43:47.447Z,18.72
2018-09-23T08:46:14.599Z,18.63
2018-09-23T08:48:41.797Z,18.69
2018-09-23T08:51:08.930Z,18.79
2018-09-23T08:53:36.031Z,18.86
2018-09-23T08:56:03.507Z,18.88
2018-09-23T08:58:30.900Z,18.91
2018-09-23T09:00:58.031Z,18.84
2018-09-23T09:03:25.304Z,18.78
2018-09-23T09:05:52.517Z,18.87
2018-09-23T09:08:19.633Z,18.98
2018-09-23T09:10:46.835Z,19.07
2018-09-23T09:13:13.985Z,19.09
2018-09-23T09:15:41.400Z,19.13
2018-09-23T09:18:09.317Z,19.16
2018-09-23T09:20:36.427Z,19.18
2018-09-23T09:23:03.734Z,19.20
2018-09-23T09:25:30.898Z,19.26
2018-09-23T09:27:58.095Z,19.30
2018-09-23T09:30:25.190Z,19.34
2018-09-23T09:32:52.343Z,19.33
2018-09-23T09:35:19.547Z,19.45
2018-09-23T09:37:46.739Z,19.45
2018-09-23T09:40:13.892Z,19.44
2018-09-23T09:42:41.119Z,19.46
2018-09-23T09:45:08.346Z,19.43
2018-09-23T09:47:35.505Z,19.46
2018-09-23T09:50:02.851Z,19.51
2018-09-23T09:52:30.043Z,19.51
2018-09-23T09:54:57.158Z,19.47
2018-09-23T09:57:24.319Z,19.44
2018-09-23T09:59:51.578Z,19.53
2018-09-23T10:02:18.763Z,19.57
2018-09-23T10:04:45.952Z,19.54
2018-09-23T10:07:13.118Z,19.55
2018-09-23T10:09:40.301Z,19.63
2018-09-23T10:12:08.378Z,19.65
2018-09-23T10:14:35.600Z,19.64
2018-09-23T10:17:02.871Z,19.65
2018-09-23T10:19:30.037Z,19.70
2018-09-23T10:21:57.274Z,19.70
2018-09-23T10:24:24.563Z,19.63
2018-09-23T10:26:51.648Z,19.61
2018-09-23T10:29:18.857Z,19.67
2018-09-23T10:31:46.017Z,19.75
2018-09-23T10:34:13.224Z,19.80
2018-09-23T10:36:40.534Z,19.74
2018-09-23T10:39:08.774Z,19.79
2018-09-23T10:41:36.163Z,19.77
2018-09-23T10:44:03.570Z,19.76
2018-09-23T10:46:30.697Z,19.76
2018-09-23T10:48:57.964Z,19.71
2018-09-23T10:51:25.256Z,19.64
2018-09-23T10:53:52.410Z,19.72
2018-09-23T10:56:19.683Z,19.81
2018-09-23T10:58:46.882Z,19.88
2018-09-23T11:01:14.065Z,19.93
2018-09-23T11:03:41.323Z,19.99
2018-09-23T11:06:08.474Z,20.09
2018-09-23T11:08:35.948Z,20.21
2018-09-23T11:11:03.191Z,20.27
2018-09-23T11:13:30.341Z,20.26
2018-09-23T11:15:57.585Z,20.29
2018-09-23T11:18:24.841Z,20.30
2018-09-23T11:20:52.046Z,20.38
2018-09-23T11:23:19.263Z,20.39
2018-09-23T11:25:46.700Z,20.52
2018-09-23T11:28:13.914Z,20.61
2018-09-23T11:30:41.603Z,20.60
2018-09-23T11:33:08.774Z,20.67
2018-09-23T11:35:36.085Z,20.65
2018-09-23T11:38:03.325Z,20.74
2018-09-23T11:40:30.716Z,20.77
2018-09-23T11:42:58.023Z,20.85
2018-09-23T11:45:25.093Z,20.91
2018-09-23T11:47:52.360Z,20.87
2018-09-23T11:50:19.529Z,21.04
2018-09-23T11:52:46.874Z,21.07
2018-09-23T11:55:14.046Z,21.12
2018-09-23T11:57:41.384Z,21.28
2018-09-23T12:00:08.609Z,21.31
2018-09-23T12:02:35.844Z,21.14
2018-09-23T12:05:03.003Z,21.20
2018-09-23T12:07:30.452Z,21.21
2018-09-23T12:12:15.145Z,21.55
2018-09-23T12:14:42.257Z,21.63
2018-09-23T12:17:09.422Z,21.73
2018-09-23T12:19:36.650Z,21.74
2018-09-23T12:22:03.963Z,21.65
2018-09-23T12:24:31.300Z,21.57
2018-09-23T12:26:58.750Z,21.60
2018-09-23T12:29:26.042Z,21.66
2018-09-23T12:31:53.263Z,21.83
2018-09-23T12:34:20.570Z,22.03
2018-09-23T12:36:47.929Z,22.19
2018-09-23T12:39:15.223Z,22.33
2018-09-23T12:41:42.669Z,22.23
2018-09-23T12:44:10.377Z,22.11
2018-09-23T12:46:37.590Z,21.94
2018-09-23T12:49:04.946Z,21.91
2018-09-23T12:51:32.213Z,21.91
2018-09-23T12:53:59.555Z,21.91
2018-09-23T12:56:26.750Z,21.91
2018-09-23T12:58:54.076Z,21.94
2018-09-23T13:01:21.373Z,21.90
2018-09-23T13:03:48.750Z,21.83
2018-09-23T13:06:15.915Z,21.89
2018-09-23T13:08:43.111Z,21.95
2018-09-23T13:11:10.569Z,21.89
2018-09-23T13:13:37.773Z,21.97
2018-09-23T13:16:05.158Z,22.00
2018-09-23T13:18:32.416Z,22.04
2018-09-23T13:20:59.593Z,22.01
2018-09-23T13:23:26.879Z,21.89
2018-09-23T13:25:54.108Z,21.74
2018-09-23T13:28:21.399Z,21.61
2018-09-23T13:30:48.983Z,21.63
2018-09-23T13:33:16.218Z,21.47
2018-09-23T13:35:43.458Z,21.45
2018-09-23T13:38:10.612Z,21.40
2018-09-23T13:40:37.873Z,21.27
2018-09-23T13:43:05.074Z,21.11
2018-09-23T13:45:32.274Z,21.08
2018-09-23T13:47:59.499Z,21.00
2018-09-23T13:50:26.726Z,21.05
2018-09-23T13:52:53.939Z,20.98
2018-09-23T13:55:21.157Z,20.95
2018-09-23T13:57:48.410Z,21.03
2018-09-23T14:00:15.661Z,21.02
2018-09-23T14:02:42.886Z,20.92
2018-09-23T14:05:10.297Z,21.01
2018-09-23T14:07:37.536Z,21.04
2018-09-23T14:10:04.790Z,21.04
2018-09-23T14:12:32.027Z,21.05
2018-09-23T14:14:59.378Z,21.05
2018-09-23T14:17:26.683Z,21.00
2018-09-23T14:19:54.070Z,21.03
2018-09-23T14:22:21.475Z,21.04
2018-09-23T14:24:48.727Z,20.96
2018-09-23T14:27:15.949Z,20.91
2018-09-23T14:29:43.298Z,20.73
2018-09-23T14:32:10.574Z,20.49
2018-09-23T14:34:37.787Z,20.38
2018-09-23T14:37:05.259Z,20.26
2018-09-23T14:39:32.386Z,20.16
2018-09-23T14:41:59.654Z,20.14
2018-09-23T14:44:26.838Z,20.04
2018-09-23T14:46:54.051Z,20.01
2018-09-23T14:49:21.323Z,19.98
2018-09-23T14:51:48.518Z,20.04
2018-09-23T14:54:15.977Z,19.98
2018-09-23T14:56:43.103Z,18.84
2018-09-23T14:59:10.282Z,18.17
2018-09-23T15:01:37.535Z,17.95
2018-09-23T15:04:04.892Z,17.93
2018-09-23T15:06:32.103Z,17.91
2018-09-23T15:08:59.279Z,17.97
2018-09-23T15:11:26.813Z,18.01
2018-09-23T15:13:54.238Z,18.01
2018-09-23T15:16:21.407Z,17.96
2018-09-23T15:18:48.747Z,17.91
2018-09-23T15:21:16.003Z,17.88
2018-09-23T15:23:43.239Z,17.83
2018-09-23T15:26:10.511Z,17.86
2018-09-23T15:28:37.695Z,17.80
2018-09-23T15:31:05.007Z,17.74
2018-09-23T15:33:32.300Z,17.76
2018-09-23T15:35:59.888Z,17.72
2018-09-23T15:38:27.198Z,17.68
2018-09-23T15:40:54.467Z,17.56
2018-09-23T15:43:21.690Z,17.55
2018-09-23T15:45:48.938Z,17.47
2018-09-23T15:48:16.190Z,17.42
2018-09-23T15:50:43.502Z,17.35
2018-09-23T15:53:10.914Z,17.36
2018-09-23T15:55:38.160Z,17.25
2018-09-23T15:58:06.388Z,17.20
2018-09-23T16:00:33.829Z,17.14
2018-09-23T16:03:01.189Z,17.13
2018-09-23T16:05:28.517Z,17.13
2018-09-23T16:07:55.935Z,17.08
2018-09-23T16:10:23.159Z,17.02
2018-09-23T16:12:50.412Z,17.03
2018-09-23T16:15:17.609Z,17.00
2018-09-23T16:17:44.928Z,17.00
2018-09-23T16:20:12.295Z,16.74
2018-09-23T16:22:39.581Z,16.69
2018-09-23T16:25:06.826Z,16.68
2018-09-23T16:27:34.423Z,16.49
2018-09-23T16:30:01.628Z,16.38
2018-09-23T16:32:28.891Z,16.17
2018-09-23T16:34:57.266Z,16.03
2018-09-23T16:37:24.542Z,15.65
2018-09-23T16:39:51.713Z,15.42
2018-09-23T16:42:19.079Z,15.10
2018-09-23T16:44:46.335Z,15.08
2018-09-23T16:47:14.417Z,15.00
2018-09-23T16:49:47.527Z,14.97
2018-09-23T16:52:16.906Z,14.80
2018-09-23T16:54:52.147Z,14.68
2018-09-23T16:57:27.992Z,14.67
2018-09-23T17:00:06.009Z,14.64
2018-09-23T17:02:40.318Z,14.54
2018-09-23T17:05:13.920Z,14.49
2018-09-23T17:07:53.565Z,14.35
2018-09-23T17:10:28.900Z,14.32
2018-09-23T17:12:58.712Z,14.34
2018-09-23T17:15:33.236Z,14.30
2018-09-23T17:21:11.564Z,14.22
2018-09-23T17:23:42.550Z,14.15
2018-09-23T17:26:17.125Z,14.07
2018-09-23T17:28:49.294Z,14.12
2018-09-23T17:31:20.253Z,14.03
2018-09-23T17:33:59.057Z,14.05
2018-09-23T17:36:31.308Z,13.95
2018-09-23T17:38:59.192Z,13.85
2018-09-23T17:41:30.714Z,13.71
2018-09-23T17:44:00.557Z,13.61
2018-09-23T17:46:33.038Z,13.62
2018-09-23T17:49:01.278Z,13.62
2018-09-23T17:51:28.493Z,13.63
2018-09-23T17:53:55.811Z,13.61
2018-09-23T17:56:23.011Z,13.61
2018-09-23T17:58:50.276Z,13.75
2018-09-23T18:01:17.522Z,13.77
2018-09-23T18:03:44.866Z,13.73
2018-09-23T18:06:12.211Z,13.76
2018-09-23T18:08:39.497Z,13.64
2018-09-23T18:11:06.830Z,13.64
2018-09-23T18:13:34.079Z,13.76
2018-09-23T18:16:01.359Z,13.65
2018-09-23T18:18:28.641Z,13.69
2018-09-23T18:20:55.898Z,13.59
2018-09-23T18:23:23.279Z,13.53
2018-09-23T18:25:50.661Z,13.45
2018-09-23T18:28:17.957Z,13.47
2018-09-23T18:30:45.264Z,13.47
2018-09-23T18:33:12.637Z,13.49
2018-09-23T18:35:40.426Z,13.44
2018-09-23T18:38:07.855Z,13.44
2018-09-23T18:40:35.252Z,13.50
2018-09-23T18:43:02.860Z,13.48
2018-09-23T18:45:30.294Z,13.46
2018-09-23T18:47:57.935Z,13.53
2018-09-23T18:50:25.712Z,13.52
2018-09-23T18:52:58.716Z,13.46
2018-09-23T18:55:31.626Z,13.41
2018-09-23T18:57:59.535Z,13.18
2018-09-23T19:00:27.050Z,12.99
2018-09-23T19:02:54.496Z,12.88
2018-09-23T19:05:21.925Z,12.91
2018-09-23T19:07:49.804Z,12.90
2018-09-23T19:10:17.266Z,12.77
2018-09-23T19:12:49.398Z,12.85
2018-09-23T19:15:16.804Z,12.70
2018-09-23T19:17:44.304Z,12.68
2018-09-23T19:20:11.778Z,12.63
2018-09-23T19:22:44.804Z,12.55
2018-09-23T19:25:12.343Z,12.47
2018-09-23T19:27:40.667Z,12.50
2018-09-23T19:30:08.023Z,12.54
2018-09-23T19:32:35.600Z,12.64
2018-09-23T19:35:03.700Z,12.64
2018-09-23T19:37:31.178Z,12.64
2018-09-23T19:39:58.871Z,12.72
2018-09-23T19:42:26.340Z,12.65
2018-09-23T19:44:53.865Z,12.63
2018-09-23T19:47:21.223Z,12.65
2018-09-23T19:49:49.085Z,12.66
2018-09-23T19:52:16.774Z,12.83
2018-09-23T19:54:44.385Z,12.95
2018-09-23T19:57:11.772Z,13.08
2018-09-23T19:59:39.127Z,13.18
2018-09-23T20:02:06.536Z,13.29
2018-09-23T20:04:33.795Z,13.33
2018-09-23T20:07:01.749Z,13.52
2018-09-23T20:09:29.386Z,13.45
2018-09-23T20:11:56.683Z,13.44
2018-09-23T20:14:23.921Z,13.39
2018-09-23T20:16:51.207Z,13.24
2018-09-23T20:19:18.565Z,13.26
2018-09-23T20:21:45.811Z,13.22
2018-09-23T20:24:13.001Z,13.27
2018-09-23T20:26:40.306Z,13.18
2018-09-23T20:29:07.606Z,13.24
2018-09-23T20:31:34.833Z,13.16
2018-09-23T20:34:02.467Z,13.15
2018-09-23T20:36:29.667Z,13.13
2018-09-23T20:38:57.154Z,12.94
2018-09-23T20:41:24.341Z,13.02
2018-09-23T20:43:51.635Z,12.83
2018-09-23T20:46:19.118Z,12.76
2018-09-23T20:48:46.389Z,12.81
2018-09-23T20:51:13.669Z,12.75
2018-09-23T20:53:41.046Z,12.68
2018-09-23T20:56:08.249Z,12.69
2018-09-23T20:58:35.476Z,12.45
2018-09-23T21:01:02.860Z,12.31
2018-09-23T21:03:30.187Z,12.18
2018-09-23T21:05:57.463Z,12.07
2018-09-23T21:08:24.744Z,12.01
2018-09-23T21:10:52.014Z,12.10
2018-09-23T21:13:19.313Z,12.10
2018-09-23T21:15:46.647Z,11.97
2018-09-23T21:18:13.967Z,11.96
2018-09-23T21:20:41.185Z,11.99
2018-09-23T21:23:08.465Z,11.82
2018-09-23T21:25:35.808Z,11.73
2018-09-23T21:28:03.040Z,11.79
2018-09-23T21:30:30.610Z,11.69
2018-09-23T21:32:58.050Z,11.59
2018-09-23T21:35:25.310Z,11.55
2018-09-23T21:37:52.792Z,11.48
2018-09-23T21:40:20.125Z,11.44
2018-09-23T21:42:47.363Z,11.43
2018-09-23T21:45:14.659Z,11.66
2018-09-23T21:47:42.021Z,11.70
2018-09-23T21:50:09.234Z,11.81
2018-09-23T21:52:36.534Z,11.99
2018-09-23T21:55:03.857Z,12.07
2018-09-23T21:57:31.138Z,12.14
2018-09-23T21:59:59.178Z,12.20
2018-09-23T22:02:26.477Z,12.26
2018-09-23T22:04:53.792Z,12.46
2018-09-23T22:07:21.062Z,12.53
2018-09-23T22:09:48.484Z,12.60
2018-09-23T22:12:15.913Z,12.58
2018-09-23T22:14:43.258Z,12.38
2018-09-23T22:17:10.556Z,12.29
2018-09-23T22:19:37.897Z,12.39
2018-09-23T22:22:05.688Z,12.27
2018-09-23T22:24:32.967Z,12.14
2018-09-23T22:27:00.387Z,12.25
2018-09-23T22:29:27.747Z,12.40
2018-09-23T22:31:55.216Z,12.27
2018-09-23T22:34:22.479Z,12.14
2018-09-23T22:36:49.935Z,12.01
2018-09-23T22:39:17.187Z,12.01
2018-09-23T22:41:44.632Z,12.01
2018-09-23T22:44:12.291Z,12.10
2018-09-23T22:46:39.556Z,11.62
2018-09-23T22:49:06.896Z,12.34
2018-09-23T22:51:34.322Z,12.32
2018-09-23T22:54:01.606Z,12.31
2018-09-23T22:56:28.836Z,12.34
2018-09-23T22:58:56.325Z,12.09
2018-09-23T23:01:23.562Z,11.90
2018-09-23T23:03:50.712Z,11.68
2018-09-23T23:06:17.945Z,11.72
2018-09-23T23:08:45.141Z,11.59
2018-09-23T23:11:12.470Z,11.53
2018-09-23T23:13:39.659Z,11.55
2018-09-23T23:16:06.854Z,11.65
2018-09-23T23:18:34.068Z,11.87
2018-09-23T23:21:01.271Z,11.92
2018-09-23T23:23:28.448Z,11.87
2018-09-23T23:25:55.685Z,11.99
2018-09-23T23:28:23.126Z,12.02
2018-09-23T23:30:50.384Z,12.05
2018-09-23T23:33:17.570Z,12.14
2018-09-23T23:35:44.748Z,12.07
2018-09-23T23:38:11.997Z,12.13
2018-09-23T23:40:39.190Z,12.11
2018-09-23T23:43:06.551Z,12.15
2018-09-23T23:45:33.901Z,12.21
2018-09-23T23:48:01.261Z,12.30
2018-09-23T23:50:28.594Z,12.41
2018-09-23T23:52:56.175Z,12.44
2018-09-23T23:55:23.449Z,12.57
2018-09-23T23:57:50.703Z,12.57
